sensor_id;sensor_type;location;lat;lon;timestamp;P1;durP1;ratioP1;P2;durP2;ratioP2
32746;SDS011;19118;50.860;13.662;2023-12-20T00:02:29;3.42;;;2.58;;
32746;SDS011;19118;50.860;13.662;2023-12-20T00:07:29;3.85;;;2.58;;
32746;SDS011;19118;50.860;13.662;2023-12-20T00:12:30;3.20;;;2.43;;
32746;SDS011;19118;50.860;13.662;2023-12-20T00:17:30;4.57;;;2.67;;
32746;SDS011;19118;50.860;13.662;2023-12-20T00:22:30;4.72;;;3.17;;
32746;SDS011;19118;50.860;13.662;2023-12-20T00:27:31;4.40;;;2.20;;
32746;SDS011;19118;50.860;13.662;2023-12-20T00:32:31;3.38;;;2.15;;
32746;SDS011;19118;50.860;13.662;2023-12-20T00:37:31;4.95;;;2.72;;
32746;SDS011;19118;50.860;13.662;2023-12-20T00:42:32;6.50;;;2.30;;
32746;SDS011;19118;50.860;13.662;2023-12-20T00:47:33;3.17;;;2.15;;
32746;SDS011;19118;50.860;13.662;2023-12-20T00:52:33;4.45;;;2.47;;
32746;SDS011;19118;50.860;13.662;2023-12-20T00:57:33;3.67;;;2.53;;
32746;SDS011;19118;50.860;13.662;2023-12-20T01:02:34;3.72;;;2.38;;
32746;SDS011;19118;50.860;13.662;2023-12-20T01:07:34;5.10;;;1.80;;
32746;SDS011;19118;50.860;13.662;2023-12-20T01:12:36;2.95;;;2.08;;
32746;SDS011;19118;50.860;13.662;2023-12-20T01:17:36;2.88;;;1.90;;
32746;SDS011;19118;50.860;13.662;2023-12-20T01:22:37;2.88;;;1.80;;
32746;SDS011;19118;50.860;13.662;2023-12-20T01:27:37;2.42;;;1.60;;
32746;SDS011;19118;50.860;13.662;2023-12-20T01:32:37;2.22;;;1.60;;
32746;SDS011;19118;50.860;13.662;2023-12-20T01:37:38;2.92;;;1.95;;
32746;SDS011;19118;50.860;13.662;2023-12-20T01:42:38;1.47;;;1.30;;
32746;SDS011;19118;50.860;13.662;2023-12-20T01:47:38;2.15;;;1.38;;
32746;SDS011;19118;50.860;13.662;2023-12-20T01:52:39;1.50;;;1.40;;
32746;SDS011;19118;50.860;13.662;2023-12-20T01:57:39;2.22;;;1.60;;
32746;SDS011;19118;50.860;13.662;2023-12-20T02:02:44;1.60;;;1.20;;
32746;SDS011;19118;50.860;13.662;2023-12-20T02:07:45;2.25;;;1.40;;
32746;SDS011;19118;50.860;13.662;2023-12-20T02:12:46;1.70;;;1.20;;
32746;SDS011;19118;50.860;13.662;2023-12-20T02:17:46;2.37;;;1.37;;
32746;SDS011;19118;50.860;13.662;2023-12-20T02:22:48;1.65;;;1.30;;
32746;SDS011;19118;50.860;13.662;2023-12-20T02:27:48;1.63;;;1.23;;
32746;SDS011;19118;50.860;13.662;2023-12-20T02:32:49;1.65;;;1.15;;
32746;SDS011;19118;50.860;13.662;2023-12-20T02:37:51;1.40;;;1.05;;
32746;SDS011;19118;50.860;13.662;2023-12-20T02:42:51;1.43;;;1.00;;
32746;SDS011;19118;50.860;13.662;2023-12-20T02:47:51;2.93;;;0.93;;
32746;SDS011;19118;50.860;13.662;2023-12-20T02:52:52;1.70;;;1.10;;
32746;SDS011;19118;50.860;13.662;2023-12-20T02:57:52;1.50;;;1.10;;
32746;SDS011;19118;50.860;13.662;2023-12-20T03:02:52;1.07;;;0.83;;
32746;SDS011;19118;50.860;13.662;2023-12-20T03:07:53;0.80;;;0.80;;
32746;SDS011;19118;50.860;13.662;2023-12-20T03:12:53;1.03;;;0.87;;
32746;SDS011;19118;50.860;13.662;2023-12-20T03:17:53;0.80;;;0.60;;
32746;SDS011;19118;50.860;13.662;2023-12-20T03:22:54;1.37;;;1.00;;
32746;SDS011;19118;50.860;13.662;2023-12-20T03:27:54;0.93;;;0.83;;
32746;SDS011;19118;50.860;13.662;2023-12-20T03:32:55;1.08;;;0.80;;
32746;SDS011;19118;50.860;13.662;2023-12-20T03:37:55;0.97;;;0.70;;
32746;SDS011;19118;50.860;13.662;2023-12-20T03:42:57;2.50;;;0.80;;
32746;SDS011;19118;50.860;13.662;2023-12-20T03:47:57;3.67;;;0.77;;
32746;SDS011;19118;50.860;13.662;2023-12-20T03:52:57;0.90;;;0.77;;
32746;SDS011;19118;50.860;13.662;2023-12-20T03:57:58;0.85;;;0.65;;
32746;SDS011;19118;50.860;13.662;2023-12-20T04:02:58;0.67;;;0.63;;
32746;SDS011;19118;50.860;13.662;2023-12-20T04:07:59;0.67;;;0.60;;
32746;SDS011;19118;50.860;13.662;2023-12-20T04:13:01;0.73;;;0.60;;
32746;SDS011;19118;50.860;13.662;2023-12-20T04:18:01;0.70;;;0.67;;
32746;SDS011;19118;50.860;13.662;2023-12-20T04:23:02;0.60;;;0.60;;
32746;SDS011;19118;50.860;13.662;2023-12-20T04:28:02;0.57;;;0.50;;
32746;SDS011;19118;50.860;13.662;2023-12-20T04:33:02;0.70;;;0.50;;
32746;SDS011;19118;50.860;13.662;2023-12-20T04:38:03;0.63;;;0.50;;
32746;SDS011;19118;50.860;13.662;2023-12-20T04:43:03;0.40;;;0.40;;
32746;SDS011;19118;50.860;13.662;2023-12-20T04:48:04;0.60;;;0.60;;
32746;SDS011;19118;50.860;13.662;2023-12-20T04:53:05;0.63;;;0.52;;
32746;SDS011;19118;50.860;13.662;2023-12-20T04:58:05;5.43;;;1.52;;
32746;SDS011;19118;50.860;13.662;2023-12-20T05:03:05;0.80;;;0.60;;
32746;SDS011;19118;50.860;13.662;2023-12-20T05:08:06;0.50;;;0.50;;
32746;SDS011;19118;50.860;13.662;2023-12-20T05:13:06;1.85;;;0.50;;
32746;SDS011;19118;50.860;13.662;2023-12-20T05:18:07;0.40;;;0.40;;
32746;SDS011;19118;50.860;13.662;2023-12-20T05:23:08;1.00;;;0.80;;
32746;SDS011;19118;50.860;13.662;2023-12-20T05:28:08;1.30;;;1.03;;
32746;SDS011;19118;50.860;13.662;2023-12-20T05:33:08;1.02;;;0.60;;
32746;SDS011;19118;50.860;13.662;2023-12-20T05:38:09;3.13;;;0.70;;
32746;SDS011;19118;50.860;13.662;2023-12-20T05:43:09;1.17;;;0.90;;
32746;SDS011;19118;50.860;13.662;2023-12-20T05:48:10;0.90;;;0.70;;
32746;SDS011;19118;50.860;13.662;2023-12-20T05:53:10;1.40;;;0.77;;
32746;SDS011;19118;50.860;13.662;2023-12-20T05:58:10;0.70;;;0.50;;
32746;SDS011;19118;50.860;13.662;2023-12-20T06:03:10;1.13;;;0.60;;
32746;SDS011;19118;50.860;13.662;2023-12-20T06:08:11;2.25;;;0.80;;
32746;SDS011;19118;50.860;13.662;2023-12-20T06:13:11;0.90;;;0.70;;
32746;SDS011;19118;50.860;13.662;2023-12-20T06:18:13;0.57;;;0.52;;
32746;SDS011;19118;50.860;13.662;2023-12-20T06:23:13;1.17;;;0.77;;
32746;SDS011;19118;50.860;13.662;2023-12-20T06:28:13;0.70;;;0.65;;
32746;SDS011;19118;50.860;13.662;2023-12-20T06:33:14;1.02;;;0.68;;
32746;SDS011;19118;50.860;13.662;2023-12-20T06:38:15;0.70;;;0.55;;
32746;SDS011;19118;50.860;13.662;2023-12-20T06:43:19;1.02;;;0.90;;
32746;SDS011;19118;50.860;13.662;2023-12-20T06:48:19;1.05;;;0.75;;
32746;SDS011;19118;50.860;13.662;2023-12-20T06:53:20;0.60;;;0.60;;
32746;SDS011;19118;50.860;13.662;2023-12-20T06:58:21;0.47;;;0.43;;
32746;SDS011;19118;50.860;13.662;2023-12-20T07:03:21;2.30;;;0.90;;
32746;SDS011;19118;50.860;13.662;2023-12-20T07:08:21;0.90;;;0.70;;
32746;SDS011;19118;50.860;13.662;2023-12-20T07:13:22;2.70;;;1.30;;
32746;SDS011;19118;50.860;13.662;2023-12-20T07:18:22;3.28;;;1.50;;
32746;SDS011;19118;50.860;13.662;2023-12-20T07:23:23;2.80;;;1.90;;
32746;SDS011;19118;50.860;13.662;2023-12-20T07:28:23;2.35;;;2.15;;
32746;SDS011;19118;50.860;13.662;2023-12-20T07:33:24;3.83;;;2.90;;
32746;SDS011;19118;50.860;13.662;2023-12-20T07:38:25;5.93;;;4.10;;
32746;SDS011;19118;50.860;13.662;2023-12-20T07:43:26;7.07;;;4.40;;
32746;SDS011;19118;50.860;13.662;2023-12-20T07:48:27;13.88;;;6.13;;
32746;SDS011;19118;50.860;13.662;2023-12-20T07:53:27;8.73;;;4.13;;
32746;SDS011;19118;50.860;13.662;2023-12-20T07:58:27;5.63;;;2.55;;
32746;SDS011;19118;50.860;13.662;2023-12-20T08:03:30;5.03;;;2.83;;
32746;SDS011;19118;50.860;13.662;2023-12-20T08:08:30;2.40;;;2.00;;
32746;SDS011;19118;50.860;13.662;2023-12-20T08:13:31;8.95;;;2.80;;
32746;SDS011;19118;50.860;13.662;2023-12-20T08:18:31;5.73;;;3.00;;
32746;SDS011;19118;50.860;13.662;2023-12-20T08:23:31;7.47;;;2.80;;
32746;SDS011;19118;50.860;13.662;2023-12-20T08:28:32;15.80;;;2.70;;
32746;SDS011;19118;50.860;13.662;2023-12-20T08:33:32;7.95;;;2.92;;
32746;SDS011;19118;50.860;13.662;2023-12-20T08:38:33;7.13;;;2.15;;
32746;SDS011;19118;50.860;13.662;2023-12-20T08:43:36;8.37;;;2.07;;
32746;SDS011;19118;50.860;13.662;2023-12-20T08:48:36;7.10;;;1.35;;
32746;SDS011;19118;50.860;13.662;2023-12-20T08:53:37;6.45;;;1.92;;
32746;SDS011;19118;50.860;13.662;2023-12-20T08:58:37;6.25;;;2.05;;
32746;SDS011;19118;50.860;13.662;2023-12-20T09:03:38;6.97;;;1.87;;
32746;SDS011;19118;50.860;13.662;2023-12-20T09:08:39;3.70;;;1.75;;
32746;SDS011;19118;50.860;13.662;2023-12-20T09:13:39;6.22;;;1.70;;
32746;SDS011;19118;50.860;13.662;2023-12-20T09:18:40;5.65;;;2.05;;
32746;SDS011;19118;50.860;13.662;2023-12-20T09:23:40;8.97;;;2.53;;
32746;SDS011;19118;50.860;13.662;2023-12-20T09:28:40;5.28;;;2.30;;
32746;SDS011;19118;50.860;13.662;2023-12-20T09:33:41;7.45;;;1.80;;
32746;SDS011;19118;50.860;13.662;2023-12-20T09:38:41;3.67;;;1.52;;
32746;SDS011;19118;50.860;13.662;2023-12-20T09:43:42;3.30;;;1.05;;
32746;SDS011;19118;50.860;13.662;2023-12-20T09:48:43;4.63;;;1.10;;
32746;SDS011;19118;50.860;13.662;2023-12-20T09:53:45;5.68;;;2.00;;
32746;SDS011;19118;50.860;13.662;2023-12-20T09:58:47;5.28;;;1.17;;
32746;SDS011;19118;50.860;13.662;2023-12-20T10:03:47;2.03;;;1.17;;
32746;SDS011;19118;50.860;13.662;2023-12-20T10:08:48;4.30;;;1.65;;
32746;SDS011;19118;50.860;13.662;2023-12-20T10:13:49;4.78;;;1.42;;
32746;SDS011;19118;50.860;13.662;2023-12-20T10:18:49;3.53;;;1.60;;
32746;SDS011;19118;50.860;13.662;2023-12-20T10:23:50;3.90;;;1.80;;
32746;SDS011;19118;50.860;13.662;2023-12-20T10:28:53;7.38;;;1.77;;
32746;SDS011;19118;50.860;13.662;2023-12-20T10:33:56;4.35;;;1.95;;
32746;SDS011;19118;50.860;13.662;2023-12-20T10:38:58;10.85;;;2.10;;
32746;SDS011;19118;50.860;13.662;2023-12-20T10:44:00;4.47;;;1.67;;
32746;SDS011;19118;50.860;13.662;2023-12-20T10:49:05;3.38;;;1.73;;
32746;SDS011;19118;50.860;13.662;2023-12-20T10:54:06;11.48;;;2.53;;
32746;SDS011;19118;50.860;13.662;2023-12-20T10:59:08;8.77;;;1.95;;
32746;SDS011;19118;50.860;13.662;2023-12-20T11:04:13;4.10;;;1.63;;
32746;SDS011;19118;50.860;13.662;2023-12-20T11:09:25;5.57;;;1.70;;
32746;SDS011;19118;50.860;13.662;2023-12-20T11:14:31;8.90;;;1.80;;
32746;SDS011;19118;50.860;13.662;2023-12-20T11:24:53;7.97;;;1.80;;
32746;SDS011;19118;50.860;13.662;2023-12-20T11:29:54;8.50;;;1.65;;
32746;SDS011;19118;50.860;13.662;2023-12-20T11:35:00;6.78;;;1.42;;
32746;SDS011;19118;50.860;13.662;2023-12-20T11:40:02;5.47;;;1.55;;
32746;SDS011;19118;50.860;13.662;2023-12-20T11:45:14;5.00;;;1.65;;
32746;SDS011;19118;50.860;13.662;2023-12-20T11:50:16;6.03;;;1.60;;
32746;SDS011;19118;50.860;13.662;2023-12-20T11:55:19;7.35;;;1.67;;
32746;SDS011;19118;50.860;13.662;2023-12-20T12:00:19;8.50;;;2.92;;
32746;SDS011;19118;50.860;13.662;2023-12-20T12:05:20;5.72;;;1.52;;
32746;SDS011;19118;50.860;13.662;2023-12-20T12:10:21;3.97;;;1.92;;
32746;SDS011;19118;50.860;13.662;2023-12-20T12:15:21;6.65;;;1.52;;
32746;SDS011;19118;50.860;13.662;2023-12-20T12:20:22;12.20;;;1.77;;
32746;SDS011;19118;50.860;13.662;2023-12-20T12:25:23;11.98;;;2.40;;
32746;SDS011;19118;50.860;13.662;2023-12-20T12:30:24;8.05;;;1.95;;
32746;SDS011;19118;50.860;13.662;2023-12-20T12:35:24;4.38;;;1.65;;
32746;SDS011;19118;50.860;13.662;2023-12-20T12:40:27;4.88;;;1.73;;
32746;SDS011;19118;50.860;13.662;2023-12-20T12:45:27;7.13;;;1.50;;
32746;SDS011;19118;50.860;13.662;2023-12-20T12:50:28;8.77;;;1.58;;
32746;SDS011;19118;50.860;13.662;2023-12-20T12:55:28;7.75;;;1.48;;
32746;SDS011;19118;50.860;13.662;2023-12-20T13:00:29;9.85;;;1.90;;
32746;SDS011;19118;50.860;13.662;2023-12-20T13:05:29;8.63;;;2.03;;
32746;SDS011;19118;50.860;13.662;2023-12-20T13:10:30;5.97;;;1.80;;
32746;SDS011;19118;50.860;13.662;2023-12-20T13:15:30;12.90;;;2.63;;
32746;SDS011;19118;50.860;13.662;2023-12-20T13:20:31;8.30;;;1.53;;
32746;SDS011;19118;50.860;13.662;2023-12-20T13:25:31;9.43;;;2.67;;
32746;SDS011;19118;50.860;13.662;2023-12-20T13:30:31;13.38;;;1.90;;
32746;SDS011;19118;50.860;13.662;2023-12-20T13:35:32;16.33;;;2.15;;
32746;SDS011;19118;50.860;13.662;2023-12-20T13:40:34;4.55;;;1.50;;
32746;SDS011;19118;50.860;13.662;2023-12-20T13:45:34;5.03;;;1.92;;
32746;SDS011;19118;50.860;13.662;2023-12-20T13:50:34;8.90;;;1.63;;
32746;SDS011;19118;50.860;13.662;2023-12-20T13:55:35;4.80;;;1.73;;
32746;SDS011;19118;50.860;13.662;2023-12-20T14:00:35;6.37;;;1.63;;
32746;SDS011;19118;50.860;13.662;2023-12-20T14:05:36;6.07;;;1.48;;
32746;SDS011;19118;50.860;13.662;2023-12-20T14:10:37;4.90;;;1.70;;
32746;SDS011;19118;50.860;13.662;2023-12-20T14:15:38;3.78;;;1.35;;
32746;SDS011;19118;50.860;13.662;2023-12-20T14:20:38;3.43;;;1.57;;
32746;SDS011;19118;50.860;13.662;2023-12-20T14:25:40;5.82;;;1.02;;
32746;SDS011;19118;50.860;13.662;2023-12-20T14:30:41;4.00;;;1.30;;
32746;SDS011;19118;50.860;13.662;2023-12-20T14:35:42;4.93;;;1.87;;
32746;SDS011;19118;50.860;13.662;2023-12-20T14:40:44;3.35;;;1.45;;
32746;SDS011;19118;50.860;13.662;2023-12-20T14:45:44;3.83;;;1.48;;
32746;SDS011;19118;50.860;13.662;2023-12-20T14:50:45;5.13;;;1.40;;
32746;SDS011;19118;50.860;13.662;2023-12-20T14:55:48;6.95;;;1.33;;
32746;SDS011;19118;50.860;13.662;2023-12-20T15:00:49;4.78;;;2.03;;
32746;SDS011;19118;50.860;13.662;2023-12-20T15:05:50;3.30;;;1.40;;
32746;SDS011;19118;50.860;13.662;2023-12-20T15:10:50;5.65;;;1.30;;
32746;SDS011;19118;50.860;13.662;2023-12-20T15:15:51;4.75;;;1.30;;
32746;SDS011;19118;50.860;13.662;2023-12-20T15:20:51;5.37;;;1.30;;
32746;SDS011;19118;50.860;13.662;2023-12-20T15:25:51;7.17;;;1.60;;
32746;SDS011;19118;50.860;13.662;2023-12-20T15:30:52;3.17;;;1.20;;
32746;SDS011;19118;50.860;13.662;2023-12-20T15:35:52;6.90;;;1.20;;
32746;SDS011;19118;50.860;13.662;2023-12-20T15:40:52;6.67;;;1.57;;
32746;SDS011;19118;50.860;13.662;2023-12-20T15:45:53;2.97;;;1.30;;
32746;SDS011;19118;50.860;13.662;2023-12-20T15:50:53;5.80;;;1.65;;
32746;SDS011;19118;50.860;13.662;2023-12-20T15:55:53;7.25;;;1.30;;
32746;SDS011;19118;50.860;13.662;2023-12-20T16:00:54;7.50;;;2.80;;
32746;SDS011;19118;50.860;13.662;2023-12-20T16:05:54;7.90;;;2.70;;
32746;SDS011;19118;50.860;13.662;2023-12-20T16:10:54;5.57;;;1.65;;
32746;SDS011;19118;50.860;13.662;2023-12-20T16:15:55;3.63;;;1.40;;
32746;SDS011;19118;50.860;13.662;2023-12-20T16:20:55;4.97;;;1.30;;
32746;SDS011;19118;50.860;13.662;2023-12-20T16:25:57;4.60;;;1.17;;
32746;SDS011;19118;50.860;13.662;2023-12-20T16:30:57;3.65;;;1.40;;
32746;SDS011;19118;50.860;13.662;2023-12-20T16:35:58;3.25;;;1.50;;
32746;SDS011;19118;50.860;13.662;2023-12-20T16:40:58;6.20;;;1.50;;
32746;SDS011;19118;50.860;13.662;2023-12-20T16:45:59;4.60;;;1.33;;
32746;SDS011;19118;50.860;13.662;2023-12-20T16:50:59;8.43;;;2.00;;
32746;SDS011;19118;50.860;13.662;2023-12-20T16:55:59;7.03;;;1.80;;
32746;SDS011;19118;50.860;13.662;2023-12-20T17:01:00;4.70;;;1.45;;
32746;SDS011;19118;50.860;13.662;2023-12-20T17:06:00;11.97;;;1.30;;
32746;SDS011;19118;50.860;13.662;2023-12-20T17:11:00;7.43;;;2.83;;
32746;SDS011;19118;50.860;13.662;2023-12-20T17:16:01;3.67;;;1.50;;
32746;SDS011;19118;50.860;13.662;2023-12-20T17:21:01;5.13;;;1.40;;
32746;SDS011;19118;50.860;13.662;2023-12-20T17:26:02;4.38;;;1.40;;
32746;SDS011;19118;50.860;13.662;2023-12-20T17:31:02;6.95;;;2.08;;
32746;SDS011;19118;50.860;13.662;2023-12-20T17:36:03;11.80;;;1.88;;
32746;SDS011;19118;50.860;13.662;2023-12-20T17:41:04;9.15;;;1.83;;
32746;SDS011;19118;50.860;13.662;2023-12-20T17:46:04;10.20;;;1.57;;
32746;SDS011;19118;50.860;13.662;2023-12-20T17:51:04;8.55;;;1.95;;
32746;SDS011;19118;50.860;13.662;2023-12-20T17:56:05;7.07;;;1.52;;
32746;SDS011;19118;50.860;13.662;2023-12-20T18:01:09;8.45;;;1.83;;
32746;SDS011;19118;50.860;13.662;2023-12-20T18:06:14;4.90;;;2.08;;
32746;SDS011;19118;50.860;13.662;2023-12-20T18:11:15;8.13;;;2.07;;
32746;SDS011;19118;50.860;13.662;2023-12-20T18:16:15;5.72;;;1.60;;
32746;SDS011;19118;50.860;13.662;2023-12-20T18:21:17;7.28;;;2.50;;
32746;SDS011;19118;50.860;13.662;2023-12-20T18:26:17;4.07;;;1.88;;
32746;SDS011;19118;50.860;13.662;2023-12-20T18:31:17;8.35;;;3.08;;
32746;SDS011;19118;50.860;13.662;2023-12-20T18:36:18;8.02;;;2.53;;
32746;SDS011;19118;50.860;13.662;2023-12-20T18:41:19;7.97;;;2.45;;
32746;SDS011;19118;50.860;13.662;2023-12-20T18:46:19;6.80;;;1.83;;
32746;SDS011;19118;50.860;13.662;2023-12-20T18:51:20;4.97;;;1.73;;
32746;SDS011;19118;50.860;13.662;2023-12-20T18:56:20;9.97;;;2.20;;
32746;SDS011;19118;50.860;13.662;2023-12-20T19:01:20;7.30;;;1.83;;
32746;SDS011;19118;50.860;13.662;2023-12-20T19:06:21;6.68;;;2.05;;
32746;SDS011;19118;50.860;13.662;2023-12-20T19:11:21;7.18;;;2.42;;
32746;SDS011;19118;50.860;13.662;2023-12-20T19:16:21;8.87;;;1.63;;
32746;SDS011;19118;50.860;13.662;2023-12-20T19:21:23;4.50;;;1.95;;
32746;SDS011;19118;50.860;13.662;2023-12-20T19:26:23;2.90;;;1.53;;
32746;SDS011;19118;50.860;13.662;2023-12-20T19:31:23;8.17;;;2.10;;
32746;SDS011;19118;50.860;13.662;2023-12-20T19:36:23;2.97;;;1.70;;
32746;SDS011;19118;50.860;13.662;2023-12-20T19:41:24;4.40;;;1.73;;
32746;SDS011;19118;50.860;13.662;2023-12-20T19:46:24;4.95;;;2.25;;
32746;SDS011;19118;50.860;13.662;2023-12-20T19:51:25;2.10;;;1.48;;
32746;SDS011;19118;50.860;13.662;2023-12-20T19:56:26;5.32;;;1.95;;
32746;SDS011;19118;50.860;13.662;2023-12-20T20:01:26;4.10;;;1.80;;
32746;SDS011;19118;50.860;13.662;2023-12-20T20:06:26;2.85;;;1.67;;
32746;SDS011;19118;50.860;13.662;2023-12-20T20:11:27;2.80;;;1.50;;
32746;SDS011;19118;50.860;13.662;2023-12-20T20:16:27;3.60;;;1.53;;
32746;SDS011;19118;50.860;13.662;2023-12-20T20:21:27;2.13;;;1.20;;
32746;SDS011;19118;50.860;13.662;2023-12-20T20:26:28;1.95;;;1.05;;
32746;SDS011;19118;50.860;13.662;2023-12-20T20:31:28;3.00;;;1.40;;
32746;SDS011;19118;50.860;13.662;2023-12-20T20:36:32;2.88;;;1.25;;
32746;SDS011;19118;50.860;13.662;2023-12-20T20:41:32;1.30;;;0.93;;
32746;SDS011;19118;50.860;13.662;2023-12-20T20:46:33;2.20;;;1.08;;
32746;SDS011;19118;50.860;13.662;2023-12-20T20:51:33;1.80;;;0.90;;
32746;SDS011;19118;50.860;13.662;2023-12-20T20:56:33;5.38;;;0.95;;
32746;SDS011;19118;50.860;13.662;2023-12-20T21:01:34;4.20;;;1.20;;
32746;SDS011;19118;50.860;13.662;2023-12-20T21:06:34;3.70;;;1.30;;
32746;SDS011;19118;50.860;13.662;2023-12-20T21:11:34;13.85;;;5.03;;
32746;SDS011;19118;50.860;13.662;2023-12-20T21:16:35;1.58;;;0.82;;
32746;SDS011;19118;50.860;13.662;2023-12-20T21:21:36;3.05;;;0.90;;
32746;SDS011;19118;50.860;13.662;2023-12-20T21:26:37;1.33;;;1.23;;
32746;SDS011;19118;50.860;13.662;2023-12-20T21:31:37;1.47;;;0.70;;
32746;SDS011;19118;50.860;13.662;2023-12-20T21:36:38;2.13;;;1.10;;
32746;SDS011;19118;50.860;13.662;2023-12-20T21:41:38;3.33;;;1.33;;
32746;SDS011;19118;50.860;13.662;2023-12-20T21:46:39;2.92;;;1.13;;
32746;SDS011;19118;50.860;13.662;2023-12-20T21:51:41;0.77;;;0.75;;
32746;SDS011;19118;50.860;13.662;2023-12-20T21:56:42;1.83;;;1.38;;
32746;SDS011;19118;50.860;13.662;2023-12-20T22:01:42;3.17;;;1.05;;
32746;SDS011;19118;50.860;13.662;2023-12-20T22:06:43;3.00;;;0.98;;
32746;SDS011;19118;50.860;13.662;2023-12-20T22:11:43;3.83;;;1.00;;
32746;SDS011;19118;50.860;13.662;2023-12-20T22:16:44;1.30;;;0.63;;
32746;SDS011;19118;50.860;13.662;2023-12-20T22:21:44;5.35;;;0.85;;
32746;SDS011;19118;50.860;13.662;2023-12-20T22:26:45;4.93;;;0.60;;
32746;SDS011;19118;50.860;13.662;2023-12-20T22:31:45;2.40;;;1.10;;
32746;SDS011;19118;50.860;13.662;2023-12-20T22:36:45;1.73;;;0.80;;
32746;SDS011;19118;50.860;13.662;2023-12-20T22:41:46;1.88;;;0.60;;
32746;SDS011;19118;50.860;13.662;2023-12-20T22:46:46;3.35;;;1.20;;
32746;SDS011;19118;50.860;13.662;2023-12-20T22:51:47;4.97;;;0.77;;
32746;SDS011;19118;50.860;13.662;2023-12-20T22:56:48;2.83;;;1.25;;
32746;SDS011;19118;50.860;13.662;2023-12-20T23:01:54;2.15;;;1.15;;
32746;SDS011;19118;50.860;13.662;2023-12-20T23:06:54;1.47;;;0.73;;
32746;SDS011;19118;50.860;13.662;2023-12-20T23:11:54;2.38;;;0.90;;
32746;SDS011;19118;50.860;13.662;2023-12-20T23:16:54;2.40;;;0.95;;
32746;SDS011;19118;50.860;13.662;2023-12-20T23:21:55;1.95;;;0.90;;
32746;SDS011;19118;50.860;13.662;2023-12-20T23:26:56;1.70;;;0.98;;
32746;SDS011;19118;50.860;13.662;2023-12-20T23:31:57;2.08;;;0.88;;
32746;SDS011;19118;50.860;13.662;2023-12-20T23:36:57;1.10;;;0.70;;
32746;SDS011;19118;50.860;13.662;2023-12-20T23:41:57;1.13;;;0.90;;
32746;SDS011;19118;50.860;13.662;2023-12-20T23:46:58;0.77;;;0.60;;
32746;SDS011;19118;50.860;13.662;2023-12-20T23:51:58;3.67;;;1.03;;
32746;SDS011;19118;50.860;13.662;2023-12-20T23:56:58;1.27;;;0.65;;
